sensor_id;sensor_type;location;lat;lon;timestamp;P1;durP1;ratioP1;P2;durP2;ratioP2
29634;SDS011;16557;54.762;56.068;2023-02-28T00:01:41;10.55;;;7.03;;
29634;SDS011;16557;54.762;56.068;2023-02-28T00:04:11;10.03;;;7.45;;
29634;SDS011;16557;54.762;56.068;2023-02-28T00:06:40;10.80;;;7.08;;
29634;SDS011;16557;54.762;56.068;2023-02-28T00:09:09;10.63;;;7.25;;
29634;SDS011;16557;54.762;56.068;2023-02-28T00:11:39;11.00;;;7.30;;
29634;SDS011;16557;54.762;56.068;2023-02-28T00:14:08;11.63;;;7.70;;
29634;SDS011;16557;54.762;56.068;2023-02-28T00:16:38;9.63;;;6.67;;
29634;SDS011;16557;54.762;56.068;2023-02-28T00:19:07;9.03;;;7.15;;
29634;SDS011;16557;54.762;56.068;2023-02-28T00:21:36;9.55;;;7.35;;
29634;SDS011;16557;54.762;56.068;2023-02-28T00:24:07;9.98;;;7.15;;
29634;SDS011;16557;54.762;56.068;2023-02-28T00:26:36;9.43;;;7.28;;
29634;SDS011;16557;54.762;56.068;2023-02-28T00:29:05;10.08;;;7.33;;
29634;SDS011;16557;54.762;56.068;2023-02-28T00:31:34;10.85;;;7.58;;
29634;SDS011;16557;54.762;56.068;2023-02-28T00:34:04;9.55;;;7.72;;
29634;SDS011;16557;54.762;56.068;2023-02-28T00:36:33;11.28;;;8.38;;
29634;SDS011;16557;54.762;56.068;2023-02-28T00:39:02;11.33;;;7.95;;
29634;SDS011;16557;54.762;56.068;2023-02-28T00:41:31;10.82;;;6.97;;
29634;SDS011;16557;54.762;56.068;2023-02-28T00:44:00;10.40;;;8.08;;
29634;SDS011;16557;54.762;56.068;2023-02-28T00:46:30;10.32;;;7.40;;
29634;SDS011;16557;54.762;56.068;2023-02-28T00:48:59;10.93;;;8.13;;
29634;SDS011;16557;54.762;56.068;2023-02-28T00:51:28;12.68;;;7.33;;
29634;SDS011;16557;54.762;56.068;2023-02-28T00:53:57;9.35;;;7.45;;
29634;SDS011;16557;54.762;56.068;2023-02-28T00:56:27;13.65;;;7.83;;
29634;SDS011;16557;54.762;56.068;2023-02-28T00:58:56;9.90;;;7.47;;
29634;SDS011;16557;54.762;56.068;2023-02-28T01:01:25;16.15;;;8.05;;
29634;SDS011;16557;54.762;56.068;2023-02-28T01:03:54;11.12;;;8.38;;
29634;SDS011;16557;54.762;56.068;2023-02-28T01:06:24;11.90;;;7.60;;
29634;SDS011;16557;54.762;56.068;2023-02-28T01:08:53;10.58;;;7.60;;
29634;SDS011;16557;54.762;56.068;2023-02-28T01:11:22;10.05;;;7.67;;
29634;SDS011;16557;54.762;56.068;2023-02-28T01:13:51;13.00;;;8.20;;
29634;SDS011;16557;54.762;56.068;2023-02-28T01:16:20;10.48;;;7.75;;
29634;SDS011;16557;54.762;56.068;2023-02-28T01:18:50;11.12;;;7.25;;
29634;SDS011;16557;54.762;56.068;2023-02-28T01:21:20;12.88;;;7.28;;
29634;SDS011;16557;54.762;56.068;2023-02-28T01:23:49;11.55;;;7.75;;
29634;SDS011;16557;54.762;56.068;2023-02-28T01:26:20;9.95;;;7.47;;
29634;SDS011;16557;54.762;56.068;2023-02-28T01:28:50;14.95;;;7.40;;
29634;SDS011;16557;54.762;56.068;2023-02-28T01:31:20;10.48;;;7.55;;
29634;SDS011;16557;54.762;56.068;2023-02-28T01:33:50;10.55;;;7.10;;
29634;SDS011;16557;54.762;56.068;2023-02-28T01:36:21;10.38;;;7.28;;
29634;SDS011;16557;54.762;56.068;2023-02-28T01:38:51;11.12;;;7.95;;
29634;SDS011;16557;54.762;56.068;2023-02-28T01:41:28;9.60;;;7.08;;
29634;SDS011;16557;54.762;56.068;2023-02-28T01:44:03;10.60;;;7.45;;
29634;SDS011;16557;54.762;56.068;2023-02-28T01:46:31;11.50;;;7.10;;
29634;SDS011;16557;54.762;56.068;2023-02-28T01:49:04;9.80;;;7.72;;
29634;SDS011;16557;54.762;56.068;2023-02-28T01:51:41;9.58;;;6.45;;
29634;SDS011;16557;54.762;56.068;2023-02-28T01:54:18;9.65;;;6.95;;
29634;SDS011;16557;54.762;56.068;2023-02-28T01:56:55;10.43;;;7.35;;
29634;SDS011;16557;54.762;56.068;2023-02-28T01:59:31;10.28;;;7.37;;
29634;SDS011;16557;54.762;56.068;2023-02-28T02:02:04;12.28;;;8.25;;
29634;SDS011;16557;54.762;56.068;2023-02-28T02:04:36;9.88;;;6.42;;
29634;SDS011;16557;54.762;56.068;2023-02-28T02:07:06;15.03;;;10.18;;
29634;SDS011;16557;54.762;56.068;2023-02-28T02:09:36;11.03;;;8.90;;
29634;SDS011;16557;54.762;56.068;2023-02-28T02:12:09;11.22;;;7.22;;
29634;SDS011;16557;54.762;56.068;2023-02-28T02:14:48;9.53;;;6.93;;
29634;SDS011;16557;54.762;56.068;2023-02-28T02:17:31;10.80;;;6.85;;
29634;SDS011;16557;54.762;56.068;2023-02-28T02:25:40;8.93;;;6.35;;
29634;SDS011;16557;54.762;56.068;2023-02-28T02:28:46;9.50;;;6.55;;
29634;SDS011;16557;54.762;56.068;2023-02-28T02:34:17;11.53;;;7.05;;
29634;SDS011;16557;54.762;56.068;2023-02-28T02:37:03;10.85;;;7.28;;
29634;SDS011;16557;54.762;56.068;2023-02-28T02:39:42;9.58;;;6.80;;
29634;SDS011;16557;54.762;56.068;2023-02-28T02:42:30;10.32;;;7.15;;
29634;SDS011;16557;54.762;56.068;2023-02-28T02:45:17;10.03;;;7.53;;
29634;SDS011;16557;54.762;56.068;2023-02-28T02:47:47;11.18;;;6.87;;
29634;SDS011;16557;54.762;56.068;2023-02-28T02:50:19;9.35;;;6.83;;
29634;SDS011;16557;54.762;56.068;2023-02-28T02:52:51;9.73;;;6.53;;
29634;SDS011;16557;54.762;56.068;2023-02-28T02:55:21;9.40;;;6.58;;
29634;SDS011;16557;54.762;56.068;2023-02-28T02:57:52;9.53;;;6.90;;
29634;SDS011;16557;54.762;56.068;2023-02-28T03:00:30;8.35;;;6.08;;
29634;SDS011;16557;54.762;56.068;2023-02-28T03:03:10;9.95;;;7.30;;
29634;SDS011;16557;54.762;56.068;2023-02-28T03:05:47;9.33;;;6.72;;
29634;SDS011;16557;54.762;56.068;2023-02-28T03:08:17;9.80;;;6.62;;
29634;SDS011;16557;54.762;56.068;2023-02-28T03:10:51;9.90;;;6.70;;
29634;SDS011;16557;54.762;56.068;2023-02-28T03:25:07;9.35;;;6.17;;
29634;SDS011;16557;54.762;56.068;2023-02-28T03:27:41;9.50;;;6.67;;
29634;SDS011;16557;54.762;56.068;2023-02-28T03:32:54;9.50;;;6.62;;
29634;SDS011;16557;54.762;56.068;2023-02-28T03:35:36;8.53;;;6.15;;
29634;SDS011;16557;54.762;56.068;2023-02-28T03:38:15;8.40;;;6.33;;
29634;SDS011;16557;54.762;56.068;2023-02-28T03:40:47;11.30;;;7.53;;
29634;SDS011;16557;54.762;56.068;2023-02-28T03:43:34;10.28;;;7.58;;
29634;SDS011;16557;54.762;56.068;2023-02-28T03:46:07;9.10;;;6.25;;
29634;SDS011;16557;54.762;56.068;2023-02-28T03:51:10;10.45;;;6.72;;
29634;SDS011;16557;54.762;56.068;2023-02-28T03:56:38;7.92;;;5.72;;
29634;SDS011;16557;54.762;56.068;2023-02-28T03:59:20;9.15;;;6.20;;
29634;SDS011;16557;54.762;56.068;2023-02-28T04:01:54;8.35;;;5.30;;
29634;SDS011;16557;54.762;56.068;2023-02-28T04:04:25;7.65;;;5.78;;
29634;SDS011;16557;54.762;56.068;2023-02-28T04:07:00;10.08;;;6.15;;
29634;SDS011;16557;54.762;56.068;2023-02-28T04:09:35;10.32;;;6.60;;
29634;SDS011;16557;54.762;56.068;2023-02-28T04:12:04;9.20;;;6.17;;
29634;SDS011;16557;54.762;56.068;2023-02-28T04:14:33;8.40;;;6.05;;
29634;SDS011;16557;54.762;56.068;2023-02-28T04:17:02;12.28;;;6.40;;
29634;SDS011;16557;54.762;56.068;2023-02-28T04:19:33;7.75;;;5.85;;
29634;SDS011;16557;54.762;56.068;2023-02-28T04:22:02;9.45;;;6.22;;
29634;SDS011;16557;54.762;56.068;2023-02-28T04:24:31;7.92;;;5.53;;
29634;SDS011;16557;54.762;56.068;2023-02-28T04:27:00;11.43;;;6.47;;
29634;SDS011;16557;54.762;56.068;2023-02-28T04:29:31;9.45;;;6.00;;
29634;SDS011;16557;54.762;56.068;2023-02-28T04:32:01;7.90;;;5.30;;
29634;SDS011;16557;54.762;56.068;2023-02-28T04:34:31;8.70;;;5.97;;
29634;SDS011;16557;54.762;56.068;2023-02-28T04:37:00;7.55;;;5.62;;
29634;SDS011;16557;54.762;56.068;2023-02-28T04:39:30;8.90;;;5.87;;
29634;SDS011;16557;54.762;56.068;2023-02-28T04:42:01;8.10;;;5.83;;
29634;SDS011;16557;54.762;56.068;2023-02-28T04:44:30;9.15;;;6.17;;
29634;SDS011;16557;54.762;56.068;2023-02-28T04:47:00;7.55;;;5.67;;
29634;SDS011;16557;54.762;56.068;2023-02-28T04:49:29;8.30;;;5.35;;
29634;SDS011;16557;54.762;56.068;2023-02-28T04:51:58;9.10;;;5.85;;
29634;SDS011;16557;54.762;56.068;2023-02-28T04:54:27;8.50;;;6.15;;
29634;SDS011;16557;54.762;56.068;2023-02-28T04:56:57;7.83;;;5.40;;
29634;SDS011;16557;54.762;56.068;2023-02-28T04:59:26;8.58;;;5.78;;
29634;SDS011;16557;54.762;56.068;2023-02-28T05:01:55;11.12;;;5.97;;
29634;SDS011;16557;54.762;56.068;2023-02-28T05:04:24;7.67;;;5.42;;
29634;SDS011;16557;54.762;56.068;2023-02-28T05:06:54;9.90;;;5.83;;
29634;SDS011;16557;54.762;56.068;2023-02-28T05:09:23;9.00;;;5.78;;
29634;SDS011;16557;54.762;56.068;2023-02-28T05:11:52;9.53;;;5.67;;
29634;SDS011;16557;54.762;56.068;2023-02-28T05:14:21;8.85;;;6.03;;
29634;SDS011;16557;54.762;56.068;2023-02-28T05:16:50;7.55;;;5.50;;
29634;SDS011;16557;54.762;56.068;2023-02-28T05:19:19;11.08;;;6.35;;
29634;SDS011;16557;54.762;56.068;2023-02-28T05:21:53;7.58;;;5.55;;
29634;SDS011;16557;54.762;56.068;2023-02-28T05:24:23;9.28;;;5.87;;
29634;SDS011;16557;54.762;56.068;2023-02-28T05:26:52;7.90;;;5.58;;
29634;SDS011;16557;54.762;56.068;2023-02-28T05:29:22;8.15;;;5.67;;
29634;SDS011;16557;54.762;56.068;2023-02-28T05:31:51;9.88;;;5.97;;
29634;SDS011;16557;54.762;56.068;2023-02-28T05:34:20;6.97;;;5.35;;
29634;SDS011;16557;54.762;56.068;2023-02-28T05:36:50;8.95;;;5.45;;
29634;SDS011;16557;54.762;56.068;2023-02-28T05:39:19;7.95;;;5.60;;
29634;SDS011;16557;54.762;56.068;2023-02-28T05:41:49;8.50;;;6.20;;
29634;SDS011;16557;54.762;56.068;2023-02-28T05:44:18;8.68;;;5.90;;
29634;SDS011;16557;54.762;56.068;2023-02-28T05:46:47;6.97;;;5.40;;
29634;SDS011;16557;54.762;56.068;2023-02-28T05:49:19;8.13;;;6.30;;
29634;SDS011;16557;54.762;56.068;2023-02-28T05:51:48;7.47;;;5.42;;
29634;SDS011;16557;54.762;56.068;2023-02-28T05:54:17;7.05;;;5.55;;
29634;SDS011;16557;54.762;56.068;2023-02-28T05:56:47;9.15;;;5.85;;
29634;SDS011;16557;54.762;56.068;2023-02-28T05:59:16;8.60;;;6.10;;
29634;SDS011;16557;54.762;56.068;2023-02-28T06:01:45;11.15;;;6.90;;
29634;SDS011;16557;54.762;56.068;2023-02-28T06:04:18;8.18;;;6.08;;
29634;SDS011;16557;54.762;56.068;2023-02-28T06:06:48;9.05;;;6.30;;
29634;SDS011;16557;54.762;56.068;2023-02-28T06:09:18;7.60;;;5.08;;
29634;SDS011;16557;54.762;56.068;2023-02-28T06:11:47;8.75;;;5.97;;
29634;SDS011;16557;54.762;56.068;2023-02-28T06:14:17;7.90;;;5.78;;
29634;SDS011;16557;54.762;56.068;2023-02-28T06:16:47;10.45;;;6.53;;
29634;SDS011;16557;54.762;56.068;2023-02-28T06:19:17;7.92;;;6.17;;
29634;SDS011;16557;54.762;56.068;2023-02-28T06:21:48;9.48;;;6.97;;
29634;SDS011;16557;54.762;56.068;2023-02-28T06:24:19;10.15;;;7.20;;
29634;SDS011;16557;54.762;56.068;2023-02-28T06:26:49;10.75;;;6.67;;
29634;SDS011;16557;54.762;56.068;2023-02-28T06:29:18;16.62;;;6.70;;
29634;SDS011;16557;54.762;56.068;2023-02-28T06:31:47;9.53;;;6.22;;
29634;SDS011;16557;54.762;56.068;2023-02-28T06:34:17;9.25;;;6.35;;
29634;SDS011;16557;54.762;56.068;2023-02-28T06:36:46;8.65;;;6.17;;
29634;SDS011;16557;54.762;56.068;2023-02-28T06:39:17;10.80;;;6.22;;
29634;SDS011;16557;54.762;56.068;2023-02-28T06:41:46;9.33;;;5.65;;
29634;SDS011;16557;54.762;56.068;2023-02-28T06:44:16;8.85;;;6.45;;
29634;SDS011;16557;54.762;56.068;2023-02-28T06:46:45;9.88;;;6.12;;
29634;SDS011;16557;54.762;56.068;2023-02-28T06:49:15;11.60;;;6.28;;
29634;SDS011;16557;54.762;56.068;2023-02-28T06:51:44;8.93;;;5.83;;
29634;SDS011;16557;54.762;56.068;2023-02-28T06:54:14;8.88;;;6.50;;
29634;SDS011;16557;54.762;56.068;2023-02-28T06:56:43;8.68;;;6.47;;
29634;SDS011;16557;54.762;56.068;2023-02-28T06:59:12;12.50;;;5.92;;
29634;SDS011;16557;54.762;56.068;2023-02-28T07:01:42;8.20;;;5.95;;
29634;SDS011;16557;54.762;56.068;2023-02-28T07:04:11;8.70;;;6.05;;
29634;SDS011;16557;54.762;56.068;2023-02-28T07:06:40;9.95;;;5.97;;
29634;SDS011;16557;54.762;56.068;2023-02-28T07:09:10;8.15;;;5.03;;
29634;SDS011;16557;54.762;56.068;2023-02-28T07:11:39;7.53;;;5.35;;
29634;SDS011;16557;54.762;56.068;2023-02-28T07:14:10;9.35;;;5.80;;
29634;SDS011;16557;54.762;56.068;2023-02-28T07:16:39;6.42;;;4.95;;
29634;SDS011;16557;54.762;56.068;2023-02-28T07:19:08;7.60;;;5.40;;
29634;SDS011;16557;54.762;56.068;2023-02-28T07:21:38;8.35;;;5.20;;
29634;SDS011;16557;54.762;56.068;2023-02-28T07:24:07;6.50;;;5.10;;
29634;SDS011;16557;54.762;56.068;2023-02-28T07:26:36;9.50;;;6.05;;
29634;SDS011;16557;54.762;56.068;2023-02-28T07:29:05;5.97;;;4.58;;
29634;SDS011;16557;54.762;56.068;2023-02-28T07:31:34;7.80;;;5.03;;
29634;SDS011;16557;54.762;56.068;2023-02-28T07:34:04;6.80;;;4.83;;
29634;SDS011;16557;54.762;56.068;2023-02-28T07:36:33;10.72;;;5.00;;
29634;SDS011;16557;54.762;56.068;2023-02-28T07:39:21;5.85;;;4.67;;
29634;SDS011;16557;54.762;56.068;2023-02-28T07:41:51;6.60;;;4.95;;
29634;SDS011;16557;54.762;56.068;2023-02-28T07:44:20;8.23;;;5.62;;
29634;SDS011;16557;54.762;56.068;2023-02-28T07:46:49;5.47;;;4.50;;
29634;SDS011;16557;54.762;56.068;2023-02-28T07:49:19;7.30;;;4.70;;
29634;SDS011;16557;54.762;56.068;2023-02-28T07:51:50;7.87;;;5.45;;
29634;SDS011;16557;54.762;56.068;2023-02-28T07:54:19;6.72;;;4.42;;
29634;SDS011;16557;54.762;56.068;2023-02-28T07:56:48;5.25;;;4.08;;
29634;SDS011;16557;54.762;56.068;2023-02-28T07:59:17;5.80;;;4.00;;
29634;SDS011;16557;54.762;56.068;2023-02-28T08:01:46;6.58;;;4.62;;
29634;SDS011;16557;54.762;56.068;2023-02-28T08:04:17;6.37;;;3.92;;
29634;SDS011;16557;54.762;56.068;2023-02-28T08:06:47;6.67;;;4.55;;
29634;SDS011;16557;54.762;56.068;2023-02-28T08:09:17;6.50;;;4.60;;
29634;SDS011;16557;54.762;56.068;2023-02-28T08:11:47;6.30;;;4.80;;
29634;SDS011;16557;54.762;56.068;2023-02-28T08:14:16;7.83;;;4.83;;
29634;SDS011;16557;54.762;56.068;2023-02-28T08:16:46;7.10;;;4.65;;
29634;SDS011;16557;54.762;56.068;2023-02-28T08:19:15;7.47;;;5.87;;
29634;SDS011;16557;54.762;56.068;2023-02-28T08:21:44;6.08;;;4.30;;
29634;SDS011;16557;54.762;56.068;2023-02-28T08:24:13;6.65;;;4.92;;
29634;SDS011;16557;54.762;56.068;2023-02-28T08:26:42;10.63;;;5.95;;
29634;SDS011;16557;54.762;56.068;2023-02-28T08:29:11;7.95;;;5.35;;
29634;SDS011;16557;54.762;56.068;2023-02-28T08:31:42;8.28;;;5.45;;
29634;SDS011;16557;54.762;56.068;2023-02-28T08:34:12;8.33;;;5.50;;
29634;SDS011;16557;54.762;56.068;2023-02-28T08:36:43;6.72;;;4.92;;
29634;SDS011;16557;54.762;56.068;2023-02-28T08:39:13;6.60;;;4.40;;
29634;SDS011;16557;54.762;56.068;2023-02-28T08:41:42;5.67;;;4.65;;
29634;SDS011;16557;54.762;56.068;2023-02-28T08:44:11;6.97;;;4.37;;
29634;SDS011;16557;54.762;56.068;2023-02-28T08:46:40;4.80;;;3.60;;
29634;SDS011;16557;54.762;56.068;2023-02-28T08:49:10;6.28;;;4.55;;
29634;SDS011;16557;54.762;56.068;2023-02-28T08:51:39;5.70;;;3.90;;
29634;SDS011;16557;54.762;56.068;2023-02-28T08:54:08;5.90;;;4.17;;
29634;SDS011;16557;54.762;56.068;2023-02-28T08:56:39;6.25;;;4.17;;
29634;SDS011;16557;54.762;56.068;2023-02-28T08:59:08;6.22;;;4.25;;
29634;SDS011;16557;54.762;56.068;2023-02-28T09:01:38;5.53;;;3.83;;
29634;SDS011;16557;54.762;56.068;2023-02-28T09:04:08;6.65;;;4.37;;
29634;SDS011;16557;54.762;56.068;2023-02-28T09:06:38;5.40;;;4.15;;
29634;SDS011;16557;54.762;56.068;2023-02-28T09:09:08;5.62;;;4.37;;
29634;SDS011;16557;54.762;56.068;2023-02-28T09:11:37;7.62;;;4.80;;
29634;SDS011;16557;54.762;56.068;2023-02-28T09:14:07;5.97;;;4.47;;
29634;SDS011;16557;54.762;56.068;2023-02-28T09:16:36;5.80;;;3.52;;
29634;SDS011;16557;54.762;56.068;2023-02-28T09:19:06;6.53;;;4.35;;
29634;SDS011;16557;54.762;56.068;2023-02-28T09:21:37;6.17;;;4.08;;
29634;SDS011;16557;54.762;56.068;2023-02-28T09:24:06;5.25;;;4.28;;
29634;SDS011;16557;54.762;56.068;2023-02-28T09:26:35;6.62;;;4.95;;
29634;SDS011;16557;54.762;56.068;2023-02-28T09:29:06;8.25;;;4.92;;
29634;SDS011;16557;54.762;56.068;2023-02-28T09:31:35;6.75;;;4.90;;
29634;SDS011;16557;54.762;56.068;2023-02-28T09:34:04;7.25;;;4.85;;
29634;SDS011;16557;54.762;56.068;2023-02-28T09:36:34;6.80;;;5.00;;
29634;SDS011;16557;54.762;56.068;2023-02-28T09:39:04;10.08;;;4.97;;
29634;SDS011;16557;54.762;56.068;2023-02-28T09:41:43;6.47;;;4.60;;
29634;SDS011;16557;54.762;56.068;2023-02-28T09:44:12;7.67;;;4.75;;
29634;SDS011;16557;54.762;56.068;2023-02-28T09:46:44;7.12;;;5.25;;
29634;SDS011;16557;54.762;56.068;2023-02-28T09:49:19;6.05;;;4.70;;
29634;SDS011;16557;54.762;56.068;2023-02-28T09:51:52;7.05;;;4.85;;
29634;SDS011;16557;54.762;56.068;2023-02-28T09:54:27;5.30;;;4.12;;
29634;SDS011;16557;54.762;56.068;2023-02-28T09:57:01;6.22;;;4.12;;
29634;SDS011;16557;54.762;56.068;2023-02-28T10:00:14;5.70;;;4.30;;
29634;SDS011;16557;54.762;56.068;2023-02-28T10:05:14;5.78;;;3.60;;
29634;SDS011;16557;54.762;56.068;2023-02-28T10:10:35;5.72;;;4.50;;
29634;SDS011;16557;54.762;56.068;2023-02-28T10:13:15;7.00;;;4.60;;
29634;SDS011;16557;54.762;56.068;2023-02-28T10:15:46;5.83;;;3.70;;
29634;SDS011;16557;54.762;56.068;2023-02-28T10:18:19;5.00;;;3.60;;
29634;SDS011;16557;54.762;56.068;2023-02-28T10:20:49;6.20;;;4.35;;
29634;SDS011;16557;54.762;56.068;2023-02-28T10:23:20;6.30;;;4.35;;
29634;SDS011;16557;54.762;56.068;2023-02-28T10:28:29;7.03;;;4.85;;
29634;SDS011;16557;54.762;56.068;2023-02-28T10:31:00;6.75;;;4.22;;
29634;SDS011;16557;54.762;56.068;2023-02-28T10:33:30;6.87;;;4.25;;
29634;SDS011;16557;54.762;56.068;2023-02-28T10:36:03;7.05;;;4.37;;
29634;SDS011;16557;54.762;56.068;2023-02-28T10:38:38;6.70;;;4.70;;
29634;SDS011;16557;54.762;56.068;2023-02-28T10:43:41;7.10;;;4.12;;
29634;SDS011;16557;54.762;56.068;2023-02-28T10:46:18;5.62;;;3.92;;
29634;SDS011;16557;54.762;56.068;2023-02-28T10:48:47;8.48;;;4.42;;
29634;SDS011;16557;54.762;56.068;2023-02-28T10:51:39;6.80;;;3.87;;
29634;SDS011;16557;54.762;56.068;2023-02-28T10:54:16;6.10;;;3.90;;
29634;SDS011;16557;54.762;56.068;2023-02-28T11:01:57;5.50;;;3.35;;
29634;SDS011;16557;54.762;56.068;2023-02-28T11:07:06;6.40;;;3.87;;
29634;SDS011;16557;54.762;56.068;2023-02-28T11:09:50;4.97;;;3.40;;
29634;SDS011;16557;54.762;56.068;2023-02-28T11:12:25;5.42;;;3.87;;
29634;SDS011;16557;54.762;56.068;2023-02-28T11:14:59;6.08;;;3.70;;
29634;SDS011;16557;54.762;56.068;2023-02-28T11:17:34;4.47;;;3.22;;
29634;SDS011;16557;54.762;56.068;2023-02-28T11:20:06;5.30;;;3.33;;
29634;SDS011;16557;54.762;56.068;2023-02-28T11:22:38;4.53;;;3.37;;
29634;SDS011;16557;54.762;56.068;2023-02-28T11:25:12;6.95;;;4.33;;
29634;SDS011;16557;54.762;56.068;2023-02-28T11:27:58;6.42;;;3.95;;
29634;SDS011;16557;54.762;56.068;2023-02-28T11:30:37;5.05;;;3.15;;
29634;SDS011;16557;54.762;56.068;2023-02-28T11:33:27;6.30;;;3.75;;
29634;SDS011;16557;54.762;56.068;2023-02-28T11:36:00;6.12;;;3.67;;
29634;SDS011;16557;54.762;56.068;2023-02-28T11:38:30;5.50;;;3.90;;
29634;SDS011;16557;54.762;56.068;2023-02-28T11:41:05;5.17;;;3.45;;
29634;SDS011;16557;54.762;56.068;2023-02-28T11:43:46;5.15;;;4.15;;
29634;SDS011;16557;54.762;56.068;2023-02-28T11:46:20;4.72;;;3.40;;
29634;SDS011;16557;54.762;56.068;2023-02-28T11:51:51;10.32;;;6.33;;
29634;SDS011;16557;54.762;56.068;2023-02-28T12:00:15;6.05;;;3.80;;
29634;SDS011;16557;54.762;56.068;2023-02-28T12:05:46;4.95;;;3.58;;
29634;SDS011;16557;54.762;56.068;2023-02-28T12:08:33;5.53;;;3.55;;
29634;SDS011;16557;54.762;56.068;2023-02-28T12:11:22;6.13;;;4.00;;
29634;SDS011;16557;54.762;56.068;2023-02-28T12:14:01;6.67;;;4.28;;
29634;SDS011;16557;54.762;56.068;2023-02-28T12:27:37;5.62;;;3.62;;
29634;SDS011;16557;54.762;56.068;2023-02-28T12:32:48;6.87;;;4.08;;
29634;SDS011;16557;54.762;56.068;2023-02-28T12:35:30;6.17;;;4.22;;
29634;SDS011;16557;54.762;56.068;2023-02-28T12:41:03;8.80;;;5.05;;
29634;SDS011;16557;54.762;56.068;2023-02-28T12:43:36;6.25;;;4.08;;
29634;SDS011;16557;54.762;56.068;2023-02-28T12:46:10;5.83;;;4.12;;
29634;SDS011;16557;54.762;56.068;2023-02-28T12:48:46;5.62;;;4.20;;
29634;SDS011;16557;54.762;56.068;2023-02-28T12:51:16;7.87;;;4.30;;
29634;SDS011;16557;54.762;56.068;2023-02-28T12:56:43;8.68;;;4.17;;
29634;SDS011;16557;54.762;56.068;2023-02-28T13:02:41;5.92;;;4.55;;
29634;SDS011;16557;54.762;56.068;2023-02-28T13:05:12;6.35;;;4.20;;
29634;SDS011;16557;54.762;56.068;2023-02-28T13:10:39;6.33;;;4.10;;
29634;SDS011;16557;54.762;56.068;2023-02-28T13:13:14;5.17;;;3.70;;
29634;SDS011;16557;54.762;56.068;2023-02-28T13:16:20;6.40;;;4.62;;
29634;SDS011;16557;54.762;56.068;2023-02-28T13:18:39;7.10;;;5.17;;
29634;SDS011;16557;54.762;56.068;2023-02-28T13:21:28;5.90;;;4.58;;
29634;SDS011;16557;54.762;56.068;2023-02-28T13:23:59;6.45;;;4.87;;
29634;SDS011;16557;54.762;56.068;2023-02-28T13:39:55;6.40;;;4.45;;
29634;SDS011;16557;54.762;56.068;2023-02-28T13:45:21;6.90;;;4.28;;
29634;SDS011;16557;54.762;56.068;2023-02-28T13:48:14;6.60;;;4.50;;
29634;SDS011;16557;54.762;56.068;2023-02-28T13:50:36;7.17;;;4.95;;
29634;SDS011;16557;54.762;56.068;2023-02-28T13:55:50;6.25;;;4.25;;
29634;SDS011;16557;54.762;56.068;2023-02-28T13:58:26;6.97;;;4.55;;
29634;SDS011;16557;54.762;56.068;2023-02-28T14:01:15;7.28;;;4.30;;
29634;SDS011;16557;54.762;56.068;2023-02-28T14:04:39;6.03;;;4.72;;
29634;SDS011;16557;54.762;56.068;2023-02-28T14:06:53;10.47;;;4.37;;
29634;SDS011;16557;54.762;56.068;2023-02-28T14:09:26;6.65;;;3.77;;
29634;SDS011;16557;54.762;56.068;2023-02-28T14:15:28;9.25;;;5.37;;
29634;SDS011;16557;54.762;56.068;2023-02-28T14:18:17;7.12;;;5.03;;
29634;SDS011;16557;54.762;56.068;2023-02-28T14:20:47;6.00;;;4.35;;
29634;SDS011;16557;54.762;56.068;2023-02-28T14:31:25;7.08;;;4.25;;
29634;SDS011;16557;54.762;56.068;2023-02-28T14:37:01;6.45;;;4.33;;
29634;SDS011;16557;54.762;56.068;2023-02-28T14:39:31;7.90;;;5.22;;
29634;SDS011;16557;54.762;56.068;2023-02-28T14:42:02;7.28;;;5.25;;
29634;SDS011;16557;54.762;56.068;2023-02-28T14:44:32;8.35;;;5.05;;
29634;SDS011;16557;54.762;56.068;2023-02-28T14:47:02;8.45;;;5.70;;
29634;SDS011;16557;54.762;56.068;2023-02-28T14:49:37;5.92;;;3.92;;
29634;SDS011;16557;54.762;56.068;2023-02-28T14:52:14;7.58;;;5.05;;
29634;SDS011;16557;54.762;56.068;2023-02-28T14:54:53;7.22;;;4.90;;
29634;SDS011;16557;54.762;56.068;2023-02-28T14:57:32;7.37;;;4.85;;
29634;SDS011;16557;54.762;56.068;2023-02-28T15:02:44;7.28;;;4.30;;
29634;SDS011;16557;54.762;56.068;2023-02-28T15:07:59;7.20;;;4.47;;
29634;SDS011;16557;54.762;56.068;2023-02-28T15:10:26;7.40;;;4.78;;
29634;SDS011;16557;54.762;56.068;2023-02-28T15:12:56;7.90;;;4.83;;
29634;SDS011;16557;54.762;56.068;2023-02-28T15:21:06;8.78;;;5.37;;
29634;SDS011;16557;54.762;56.068;2023-02-28T15:23:38;7.78;;;5.05;;
29634;SDS011;16557;54.762;56.068;2023-02-28T15:26:14;6.75;;;4.72;;
29634;SDS011;16557;54.762;56.068;2023-02-28T15:28:44;10.20;;;6.45;;
29634;SDS011;16557;54.762;56.068;2023-02-28T15:31:19;11.70;;;7.45;;
29634;SDS011;16557;54.762;56.068;2023-02-28T15:33:56;8.33;;;6.35;;
29634;SDS011;16557;54.762;56.068;2023-02-28T15:36:29;10.28;;;5.78;;
29634;SDS011;16557;54.762;56.068;2023-02-28T15:38:59;11.10;;;7.40;;
29634;SDS011;16557;54.762;56.068;2023-02-28T15:41:30;11.08;;;7.15;;
29634;SDS011;16557;54.762;56.068;2023-02-28T15:46:55;11.57;;;8.43;;
29634;SDS011;16557;54.762;56.068;2023-02-28T15:50:03;11.75;;;8.25;;
29634;SDS011;16557;54.762;56.068;2023-02-28T15:52:38;10.53;;;7.28;;
29634;SDS011;16557;54.762;56.068;2023-02-28T15:57:56;10.85;;;8.00;;
29634;SDS011;16557;54.762;56.068;2023-02-28T16:00:28;11.45;;;8.38;;
29634;SDS011;16557;54.762;56.068;2023-02-28T16:03:00;11.93;;;8.70;;
29634;SDS011;16557;54.762;56.068;2023-02-28T16:05:30;12.73;;;9.68;;
29634;SDS011;16557;54.762;56.068;2023-02-28T16:08:11;14.25;;;10.28;;
29634;SDS011;16557;54.762;56.068;2023-02-28T16:10:36;13.60;;;10.25;;
29634;SDS011;16557;54.762;56.068;2023-02-28T16:13:06;15.15;;;10.85;;
29634;SDS011;16557;54.762;56.068;2023-02-28T16:15:38;17.07;;;11.53;;
29634;SDS011;16557;54.762;56.068;2023-02-28T16:18:10;19.30;;;12.65;;
29634;SDS011;16557;54.762;56.068;2023-02-28T16:20:40;18.98;;;12.30;;
29634;SDS011;16557;54.762;56.068;2023-02-28T16:23:11;15.28;;;11.30;;
29634;SDS011;16557;54.762;56.068;2023-02-28T16:25:41;13.72;;;10.18;;
29634;SDS011;16557;54.762;56.068;2023-02-28T16:31:04;14.03;;;10.35;;
29634;SDS011;16557;54.762;56.068;2023-02-28T16:33:34;14.98;;;10.08;;
29634;SDS011;16557;54.762;56.068;2023-02-28T16:36:05;13.10;;;9.55;;
29634;SDS011;16557;54.762;56.068;2023-02-28T16:38:36;15.72;;;10.93;;
29634;SDS011;16557;54.762;56.068;2023-02-28T16:41:05;14.58;;;10.45;;
29634;SDS011;16557;54.762;56.068;2023-02-28T16:43:34;16.00;;;10.50;;
29634;SDS011;16557;54.762;56.068;2023-02-28T16:46:05;14.55;;;10.28;;
29634;SDS011;16557;54.762;56.068;2023-02-28T16:48:36;17.87;;;11.43;;
29634;SDS011;16557;54.762;56.068;2023-02-28T16:51:05;16.60;;;11.55;;
29634;SDS011;16557;54.762;56.068;2023-02-28T16:53:36;14.38;;;9.75;;
29634;SDS011;16557;54.762;56.068;2023-02-28T16:56:06;15.43;;;10.55;;
29634;SDS011;16557;54.762;56.068;2023-02-28T16:58:37;14.78;;;10.53;;
29634;SDS011;16557;54.762;56.068;2023-02-28T17:01:06;14.78;;;9.90;;
29634;SDS011;16557;54.762;56.068;2023-02-28T17:03:35;15.03;;;10.48;;
29634;SDS011;16557;54.762;56.068;2023-02-28T17:06:05;15.95;;;10.82;;
29634;SDS011;16557;54.762;56.068;2023-02-28T17:08:39;16.42;;;10.60;;
29634;SDS011;16557;54.762;56.068;2023-02-28T17:11:08;28.73;;;16.70;;
29634;SDS011;16557;54.762;56.068;2023-02-28T17:13:37;18.57;;;11.48;;
29634;SDS011;16557;54.762;56.068;2023-02-28T17:16:10;15.13;;;10.45;;